Time;durP1;ratioP1;P1;durP2;ratioP2;P2;SDS_P1;SDS_P2;PMS_P1;PMS_P2;Temp;Humidity;BMP_temperature;BMP_pressure;BME280_temperature;BME280_humidity;BME280_pressure;Samples;Min_cycle;Max_cycle;Signal;HPM_P1;HPM_P2
2021/07/29 00:00:19;;;;;;;;;;;;;;;19.63;59.63;100866.19;4996049;28;19924;-91
2021/07/29 00:02:44;;;;;;;;;;;;;;;19.60;58.42;100877.44;5008067;28;20476;-92
2021/07/29 00:05:10;;;;;;;;;;;;;;;19.52;58.22;100869.88;5007137;28;19921;-92
2021/07/29 00:07:35;;;;;;;;;;;;;;;20.34;56.75;100873.81;5005665;28;19937;-91
2021/07/29 00:10:01;;;;;;;;;;;;;;;19.61;57.66;100862.69;5005884;28;20339;-91
2021/07/29 00:12:26;;;;;;;;;;;;;;;20.01;55.92;100859.28;5006908;28;19913;-93
2021/07/29 00:14:51;;;;;;;;;;;;;;;20.21;56.09;100860.28;5005964;28;19963;-92
2021/07/29 00:17:28;;;;;;;;;;;;;;;20.10;55.88;100863.09;5005667;28;20363;-91
2021/07/29 00:19:54;;;;;;;;;;;;;;;20.75;54.76;100849.16;5004591;28;20271;-90
2021/07/29 00:22:21;;;;;;;;;;;;;;;20.71;54.50;100846.69;5004832;28;19925;-93
2021/07/29 00:24:46;;;;;;;;;;;;;;;21.35;53.14;100840.88;5005658;28;20105;-94
2021/07/29 00:27:12;;;;;;;;;;;;;;;20.79;55.10;100850.59;5006922;28;20029;-94
2021/07/29 00:29:37;;;;;;;;;;;;;;;21.20;54.58;100840.44;5007537;28;19906;-93
2021/07/29 00:32:04;;;;;;;;;;;;;;;21.31;54.39;100839.44;5006501;28;19917;-92
2021/07/29 00:34:29;;;;;;;;;;;;;;;20.58;56.38;100839.63;5005711;28;20382;-91
2021/07/29 00:36:54;;;;;;;;;;;;;;;20.34;57.04;100838.09;5004581;28;19928;-92
2021/07/29 00:39:19;;;;;;;;;;;;;;;20.53;57.59;100838.19;5006114;28;19917;-92
2021/07/29 00:41:47;;;;;;;;;;;;;;;20.69;57.30;100826.69;5006012;28;19922;-93
2021/07/29 00:44:12;;;;;;;;;;;;;;;21.09;56.13;100824.03;5006163;28;19918;-93
2021/07/29 00:46:37;;;;;;;;;;;;;;;21.33;55.79;100826.38;5005045;28;19901;-93
2021/07/29 00:49:04;;;;;;;;;;;;;;;21.57;55.58;100821.38;5005377;28;19924;-93
2021/07/29 00:51:29;;;;;;;;;;;;;;;20.73;58.77;100819.03;5004136;28;19924;-90
2021/07/29 00:53:55;;;;;;;;;;;;;;;20.59;59.34;100827.63;5005878;28;19921;-90
2021/07/29 00:56:20;;;;;;;;;;;;;;;20.53;59.49;100827.19;5005654;28;19925;-91
2021/07/29 00:58:46;;;;;;;;;;;;;;;21.48;57.32;100815.81;5005858;28;19918;-92
2021/07/29 01:01:11;;;;;;;;;;;;;;;21.52;57.30;100818.16;5005677;28;19917;-92
2021/07/29 01:03:39;;;;;;;;;;;;;;;21.12;58.71;100823.75;5004352;28;19941;-95
2021/07/29 01:06:04;;;;;;;;;;;;;;;21.23;59.20;100808.00;5006049;28;19918;-93
2021/07/29 01:08:30;;;;;;;;;;;;;;;21.21;59.13;100815.53;5006397;28;20012;-91
2021/07/29 01:10:55;;;;;;;;;;;;;;;21.41;59.07;100826.56;5007063;28;19917;-93
2021/07/29 01:13:20;;;;;;;;;;;;;;;21.88;57.55;100831.34;5007956;28;19913;-91
2021/07/29 01:15:46;;;;;;;;;;;;;;;21.95;57.82;100836.13;4990483;28;20066;-92
2021/07/29 01:18:11;;;;;;;;;;;;;;;22.30;56.15;100829.06;5006006;28;19936;-94
2021/07/29 01:20:36;;;;;;;;;;;;;;;21.54;57.98;100831.78;5006950;28;20315;-92
2021/07/29 01:23:02;;;;;;;;;;;;;;;21.40;58.74;100831.16;5006154;28;19917;-90
2021/07/29 01:25:27;;;;;;;;;;;;;;;21.58;58.06;100828.59;5006028;28;19918;-91
2021/07/29 01:27:52;;;;;;;;;;;;;;;21.30;59.53;100840.44;5007540;28;19941;-92
2021/07/29 01:30:17;;;;;;;;;;;;;;;22.34;56.00;100831.53;5007841;28;19980;-93
2021/07/29 01:32:43;;;;;;;;;;;;;;;21.68;57.71;100834.13;5009759;28;19964;-93
2021/07/29 01:35:10;;;;;;;;;;;;;;;21.23;56.04;100837.41;5027080;28;19925;-91
2021/07/29 01:37:37;;;;;;;;;;;;;;;20.70;55.79;100841.31;5020217;28;19906;-93
2021/07/29 01:40:02;;;;;;;;;;;;;;;21.19;53.54;100847.78;5021515;28;19917;-91
2021/07/29 01:42:27;;;;;;;;;;;;;;;20.96;53.69;100829.81;5020826;28;19922;-90
2021/07/29 01:44:53;;;;;;;;;;;;;;;20.70;53.59;100844.94;5019838;28;19968;-89
2021/07/29 01:47:18;;;;;;;;;;;;;;;20.70;53.77;100831.19;5013874;28;20024;-90
2021/07/29 01:49:43;;;;;;;;;;;;;;;20.68;53.80;100835.06;4993041;28;19922;-93
2021/07/29 01:52:10;;;;;;;;;;;;;;;20.59;53.77;100842.22;5008609;28;19913;-92
2021/07/29 01:54:36;;;;;;;;;;;;;;;20.52;53.40;100836.44;5007722;28;19921;-94
2021/07/29 01:57:01;;;;;;;;;;;;;;;20.78;52.70;100830.47;5007119;28;20264;-93
2021/07/29 01:59:26;;;;;;;;;;;;;;;21.11;51.97;100830.28;5005672;28;19918;-93
2021/07/29 02:01:52;;;;;;;;;;;;;;;20.93;51.67;100832.84;5006649;28;19917;-93
2021/07/29 02:04:17;;;;;;;;;;;;;;;21.55;50.26;100826.13;5005948;28;19929;-89
2021/07/29 02:06:42;;;;;;;;;;;;;;;21.57;49.88;100842.50;5005563;28;19917;-92
2021/07/29 02:09:07;;;;;;;;;;;;;;;20.36;52.66;100844.31;5005109;28;20431;-93
2021/07/29 02:11:35;;;;;;;;;;;;;;;20.71;50.76;100851.28;5004986;28;19924;-90
2021/07/29 02:14:00;;;;;;;;;;;;;;;19.98;52.79;100856.81;5004982;28;20004;-93
2021/07/29 02:16:26;;;;;;;;;;;;;;;20.65;50.25;100846.31;5009092;28;19960;-93
2021/07/29 02:18:51;;;;;;;;;;;;;;;20.63;50.62;100848.34;5009140;28;19917;-92
2021/07/29 02:21:17;;;;;;;;;;;;;;;20.57;50.42;100852.50;5009932;28;19918;-91
2021/07/29 02:23:48;;;;;;;;;;;;;;;19.78;51.69;100853.06;5009060;28;19917;-92
2021/07/29 02:26:14;;;;;;;;;;;;;;;21.13;48.79;100845.63;5009402;28;19923;-93
2021/07/29 02:28:39;;;;;;;;;;;;;;;21.61;46.97;100848.59;5010240;28;20004;-92
2021/07/29 02:31:04;;;;;;;;;;;;;;;20.83;49.29;100861.16;5009220;28;20383;-92
2021/07/29 02:33:30;;;;;;;;;;;;;;;21.23;47.31;100851.16;5009772;28;19921;-91
2021/07/29 02:35:55;;;;;;;;;;;;;;;21.27;47.23;100852.59;5009658;28;19922;-92
2021/07/29 02:38:20;;;;;;;;;;;;;;;21.59;46.49;100851.50;5009924;28;19917;-92
2021/07/29 02:40:46;;;;;;;;;;;;;;;21.63;46.59;100847.44;5008982;28;19917;-94
2021/07/29 02:43:11;;;;;;;;;;;;;;;22.03;45.33;100849.13;5009050;28;20048;-93
2021/07/29 02:45:36;;;;;;;;;;;;;;;21.51;45.98;100854.97;5009822;28;19948;-88
2021/07/29 02:48:02;;;;;;;;;;;;;;;21.18;47.01;100854.34;5008987;28;19988;-90
2021/07/29 02:50:27;;;;;;;;;;;;;;;21.09;47.01;100860.69;5010289;28;20398;-92
2021/07/29 02:52:52;;;;;;;;;;;;;;;21.63;46.13;100863.09;5009479;28;20379;-90
2021/07/29 02:55:18;;;;;;;;;;;;;;;21.47;46.61;100864.50;5009294;28;19924;-90
2021/07/29 02:57:43;;;;;;;;;;;;;;;20.91;48.41;100862.34;5008914;28;19924;-92
2021/07/29 03:00:08;;;;;;;;;;;;;;;20.69;49.21;100861.56;5009735;28;19914;-92
2021/07/29 03:02:34;;;;;;;;;;;;;;;20.89;48.04;100865.25;5009029;28;20009;-92
2021/07/29 03:04:59;;;;;;;;;;;;;;;20.86;48.65;100871.03;5009146;28;19972;-92
2021/07/29 03:07:26;;;;;;;;;;;;;;;20.77;48.86;100866.38;5008965;28;19921;-92
2021/07/29 03:09:52;;;;;;;;;;;;;;;19.62;52.33;100881.78;5009179;28;19919;-93
2021/07/29 03:12:17;;;;;;;;;;;;;;;20.28;51.44;100875.22;5009536;28;20044;-91
2021/07/29 03:14:44;;;;;;;;;;;;;;;19.57;53.41;100872.22;5008913;28;19913;-91
2021/07/29 03:17:10;;;;;;;;;;;;;;;20.11;52.40;100868.47;5009149;28;19917;-91
2021/07/29 03:19:35;;;;;;;;;;;;;;;20.70;50.66;100866.91;5008680;28;19944;-92
2021/07/29 03:22:00;;;;;;;;;;;;;;;20.51;50.86;100862.16;5008728;28;19917;-90
2021/07/29 03:24:25;;;;;;;;;;;;;;;20.11;52.32;100871.22;5008821;28;19921;-91
2021/07/29 03:26:51;;;;;;;;;;;;;;;20.23;51.99;100866.53;5008968;28;20161;-91
2021/07/29 03:29:16;;;;;;;;;;;;;;;20.28;51.65;100866.09;5009142;28;19917;-91
2021/07/29 03:31:41;;;;;;;;;;;;;;;20.38;52.40;100863.41;5009027;28;19913;-93
2021/07/29 03:34:07;;;;;;;;;;;;;;;20.59;51.41;100868.84;5008403;28;19922;-92
2021/07/29 03:36:32;;;;;;;;;;;;;;;20.18;53.13;100875.16;4991581;28;19993;-91
2021/07/29 03:39:06;;;;;;;;;;;;;;;19.85;54.43;100878.09;5008088;28;19921;-93
2021/07/29 03:41:32;;;;;;;;;;;;;;;20.52;52.39;100879.53;5006328;28;19917;-90
2021/07/29 03:43:57;;;;;;;;;;;;;;;21.08;50.88;100867.19;5023996;28;19999;-90
2021/07/29 03:46:22;;;;;;;;;;;;;;;21.14;51.22;100874.00;5006281;28;20338;-91
2021/07/29 03:48:47;;;;;;;;;;;;;;;20.71;52.41;100873.28;5006570;28;19932;-89
2021/07/29 03:51:13;;;;;;;;;;;;;;;20.04;54.67;100875.50;5006529;28;19917;-90
2021/07/29 03:53:38;;;;;;;;;;;;;;;20.59;53.85;100885.34;5005789;28;19917;-92
2021/07/29 03:56:04;;;;;;;;;;;;;;;20.33;54.88;100885.78;5007024;28;20430;-92
2021/07/29 03:58:29;;;;;;;;;;;;;;;20.46;54.79;100880.97;5006721;28;19924;-93
2021/07/29 04:00:58;;;;;;;;;;;;;;;20.38;55.43;100877.13;5008087;28;19948;-92
2021/07/29 04:03:24;;;;;;;;;;;;;;;20.44;55.97;100887.59;5006817;28;19917;-92
2021/07/29 04:05:49;;;;;;;;;;;;;;;20.67;55.32;100882.84;5008662;28;20335;-89
2021/07/29 04:08:14;;;;;;;;;;;;;;;20.59;56.23;100888.97;5006360;28;19929;-89
2021/07/29 04:10:40;;;;;;;;;;;;;;;21.38;54.21;100882.75;5006734;28;19917;-91
2021/07/29 04:13:05;;;;;;;;;;;;;;;20.52;56.55;100894.16;5006434;28;19922;-91
2021/07/29 04:15:30;;;;;;;;;;;;;;;20.63;56.09;100890.44;5006001;28;19922;-91
2021/07/29 04:17:55;;;;;;;;;;;;;;;20.86;55.28;100893.03;5005993;28;19925;-91
2021/07/29 04:20:21;;;;;;;;;;;;;;;21.17;54.72;100895.75;5006805;28;19917;-91
2021/07/29 04:22:46;;;;;;;;;;;;;;;20.96;55.55;100893.06;5004981;28;19927;-87
2021/07/29 04:25:11;;;;;;;;;;;;;;;20.99;55.00;100887.28;5005505;28;19978;-89
2021/07/29 04:27:37;;;;;;;;;;;;;;;20.67;55.68;100889.19;5022366;28;19986;-91
2021/07/29 04:30:02;;;;;;;;;;;;;;;21.44;53.18;100886.81;5005520;28;20008;-93
2021/07/29 04:32:34;;;;;;;;;;;;;;;21.24;52.82;100891.38;5005335;28;19917;-90
2021/07/29 04:35:00;;;;;;;;;;;;;;;21.66;52.05;100893.09;5005266;28;19929;-92
2021/07/29 04:37:25;;;;;;;;;;;;;;;20.60;55.63;100898.09;5002202;28;19922;-92
2021/07/29 04:39:50;;;;;;;;;;;;;;;20.71;54.53;100898.91;5004730;28;19910;-92
2021/07/29 04:42:15;;;;;;;;;;;;;;;21.35;52.13;100893.19;5004850;28;20307;-91
2021/07/29 04:44:41;;;;;;;;;;;;;;;21.29;51.87;100901.97;5005110;28;19985;-91
2021/07/29 04:47:06;;;;;;;;;;;;;;;20.41;54.34;100904.34;5005957;28;19914;-92
2021/07/29 04:49:31;;;;;;;;;;;;;;;21.37;51.61;100900.25;5006322;28;19918;-92
2021/07/29 04:51:58;;;;;;;;;;;;;;;21.21;52.65;100903.56;5005726;28;19913;-91
2021/07/29 04:54:24;;;;;;;;;;;;;;;20.92;54.17;100888.84;5005428;28;19924;-92
2021/07/29 04:56:49;;;;;;;;;;;;;;;21.40;53.62;100896.34;5015233;28;19921;-91
2021/07/29 04:59:14;;;;;;;;;;;;;;;21.51;54.33;100895.38;5021928;28;19917;-90
2021/07/29 05:01:40;;;;;;;;;;;;;;;21.09;55.85;100901.06;5020470;28;19944;-90
2021/07/29 05:04:06;;;;;;;;;;;;;;;21.49;55.08;100897.38;5014832;28;19930;-90
2021/07/29 05:06:31;;;;;;;;;;;;;;;21.41;55.85;100898.09;5012008;28;19922;-91
2021/07/29 05:08:57;;;;;;;;;;;;;;;21.83;54.23;100894.25;5006648;28;20052;-91
2021/07/29 05:11:22;;;;;;;;;;;;;;;21.84;55.12;100901.50;5005955;28;20405;-91
2021/07/29 05:13:47;;;;;;;;;;;;;;;22.13;54.16;100899.59;5005457;28;20402;-91
2021/07/29 05:16:22;;;;;;;;;;;;;;;21.42;55.13;100902.59;5006568;28;19922;-92
2021/07/29 05:18:47;;;;;;;;;;;;;;;21.63;55.00;100902.50;5006252;28;19932;-92
2021/07/29 05:21:13;;;;;;;;;;;;;;;22.06;53.95;100900.34;5006229;28;19917;-88
2021/07/29 05:23:38;;;;;;;;;;;;;;;21.22;56.69;100899.78;5008853;28;19996;-90
2021/07/29 05:26:03;;;;;;;;;;;;;;;21.31;55.76;100902.72;5007554;28;19918;-90
2021/07/29 05:28:28;;;;;;;;;;;;;;;21.09;56.42;100909.31;5005509;28;20407;-91
2021/07/29 05:30:54;;;;;;;;;;;;;;;21.23;56.74;100912.53;5005724;28;19980;-90
2021/07/29 05:33:19;;;;;;;;;;;;;;;20.54;58.41;100916.00;5019680;28;19980;-91
2021/07/29 05:35:45;;;;;;;;;;;;;;;21.41;55.31;100912.72;4992754;28;19925;-92
2021/07/29 05:38:10;;;;;;;;;;;;;;;21.20;55.88;100921.09;5024773;28;19917;-90
2021/07/29 05:40:35;;;;;;;;;;;;;;;21.41;55.17;100920.13;5002858;28;19925;-89
2021/07/29 05:43:01;;;;;;;;;;;;;;;20.63;58.21;100925.31;4990700;28;20398;-89
2021/07/29 05:45:28;;;;;;;;;;;;;;;21.28;56.04;100916.75;4987575;28;19909;-92
2021/07/29 05:47:53;;;;;;;;;;;;;;;21.53;55.56;100916.25;5005068;28;19918;-90
2021/07/29 05:50:19;;;;;;;;;;;;;;;21.69;54.94;100917.56;5003414;28;19924;-91
2021/07/29 05:52:44;;;;;;;;;;;;;;;21.73;54.71;100919.03;5019367;28;19949;-89
2021/07/29 05:55:10;;;;;;;;;;;;;;;22.05;53.91;100921.47;4997848;28;20375;-88
2021/07/29 05:57:41;;;;;;;;;;;;;;;20.93;56.63;100926.34;4999904;28;20387;-94
2021/07/29 06:00:09;;;;;;;;;;;;;;;22.22;53.66;100914.38;5001474;28;19917;-93
2021/07/29 06:02:38;;;;;;;;;;;;;;;21.68;54.20;100922.22;5018869;28;19921;-87
2021/07/29 06:05:03;;;;;;;;;;;;;;;21.97;53.36;100932.38;4999784;28;19921;-91
2021/07/29 06:07:29;;;;;;;;;;;;;;;21.61;54.21;100931.19;5018212;28;19913;-90
2021/07/29 06:09:57;;;;;;;;;;;;;;;22.65;51.52;100937.81;5001238;28;19924;-91
2021/07/29 06:12:28;;;;;;;;;;;;;;;21.85;53.93;100926.13;5001199;28;19920;-91
2021/07/29 06:15:00;;;;;;;;;;;;;;;21.82;53.76;100934.69;4999116;28;19984;-89
2021/07/29 06:17:31;;;;;;;;;;;;;;;21.93;52.00;100937.28;5000228;28;19921;-90
2021/07/29 06:19:56;;;;;;;;;;;;;;;21.91;52.54;100938.47;5001316;28;20390;-86
2021/07/29 06:22:21;;;;;;;;;;;;;;;21.32;54.03;100937.50;5000046;28;19917;-90
2021/07/29 06:24:46;;;;;;;;;;;;;;;21.97;51.82;100945.25;5001347;28;19928;-88
2021/07/29 06:27:13;;;;;;;;;;;;;;;22.46;51.14;100937.84;5000804;28;19968;-89
2021/07/29 06:29:38;;;;;;;;;;;;;;;21.93;51.57;100931.78;5000325;28;20012;-90
2021/07/29 06:32:04;;;;;;;;;;;;;;;22.56;48.63;100944.22;5016132;28;19972;-89
2021/07/29 06:34:30;;;;;;;;;;;;;;;22.49;49.11;100945.81;4997755;28;19921;-88
2021/07/29 06:36:55;;;;;;;;;;;;;;;22.96;47.68;100950.47;4999230;28;20028;-86
2021/07/29 06:39:20;;;;;;;;;;;;;;;22.08;48.32;100939.63;4999782;28;20374;-90
2021/07/29 06:41:48;;;;;;;;;;;;;;;21.79;49.66;100956.16;4997868;28;20008;-91
2021/07/29 06:44:14;;;;;;;;;;;;;;;22.32;47.43;100969.50;5000002;28;20433;-90
2021/07/29 06:46:40;;;;;;;;;;;;;;;21.96;48.69;100966.44;5000468;28;19922;-87
2021/07/29 06:49:05;;;;;;;;;;;;;;;22.01;47.57;100960.50;4999790;28;19933;-87
2021/07/29 06:51:31;;;;;;;;;;;;;;;22.40;46.49;100964.13;4998236;28;19964;-87
2021/07/29 06:53:56;;;;;;;;;;;;;;;22.63;46.33;100970.19;4998371;28;19924;-87
2021/07/29 06:56:21;;;;;;;;;;;;;;;22.27;46.76;100972.66;4998504;28;20271;-87
2021/07/29 06:58:47;;;;;;;;;;;;;;;23.05;45.31;100962.50;4997882;28;19983;-87
2021/07/29 07:01:13;;;;;;;;;;;;;;;22.42;46.31;100959.34;5017837;28;19921;-89
2021/07/29 07:03:38;;;;;;;;;;;;;;;21.98;46.78;100969.03;5003485;28;19940;-87
2021/07/29 07:06:05;;;;;;;;;;;;;;;22.11;46.47;100977.91;4992891;28;20012;-86
2021/07/29 07:08:31;;;;;;;;;;;;;;;21.84;47.51;100975.84;4999298;28;20729;-90
2021/07/29 07:10:56;;;;;;;;;;;;;;;21.64;47.57;100980.47;4982845;28;19918;-88
2021/07/29 07:13:22;;;;;;;;;;;;;;;21.99;47.13;100988.19;4981995;28;19920;-84
2021/07/29 07:15:47;;;;;;;;;;;;;;;22.04;47.28;100991.41;5012799;28;19944;-89
2021/07/29 07:18:23;;;;;;;;;;;;;;;21.79;48.25;101001.06;5009503;28;19928;-90
2021/07/29 07:20:49;;;;;;;;;;;;;;;22.80;45.58;100995.25;4981612;28;19922;-91
2021/07/29 07:23:14;;;;;;;;;;;;;;;22.16;46.70;101002.25;4984359;28;20001;-90
2021/07/29 07:25:39;;;;;;;;;;;;;;;21.77;47.02;101006.72;4984067;28;20384;-91
2021/07/29 07:28:05;;;;;;;;;;;;;;;22.74;44.92;101002.22;4982263;28;19922;-88
2021/07/29 07:30:31;;;;;;;;;;;;;;;22.99;44.43;101002.59;4982318;28;19917;-87
2021/07/29 07:32:57;;;;;;;;;;;;;;;23.07;42.68;100993.56;4981546;28;20369;-85
2021/07/29 07:35:22;;;;;;;;;;;;;;;23.32;42.19;100995.66;4982160;28;19950;-85
2021/07/29 07:37:47;;;;;;;;;;;;;;;23.20;43.40;101004.28;5000534;28;19924;-89
2021/07/29 07:40:13;;;;;;;;;;;;;;;23.76;42.50;101002.38;4998980;28;19941;-89
2021/07/29 07:42:38;;;;;;;;;;;;;;;22.30;43.99;101010.97;4983925;28;19918;-92
2021/07/29 07:45:04;;;;;;;;;;;;;;;22.19;43.83;101008.34;4980562;28;19926;-88
2021/07/29 07:47:29;;;;;;;;;;;;;;;23.08;43.54;101004.44;4997729;28;19940;-89
2021/07/29 07:49:55;;;;;;;;;;;;;;;23.66;41.37;101006.09;4978918;28;20012;-85
2021/07/29 07:52:20;;;;;;;;;;;;;;;23.45;41.58;101011.00;4997661;28;20099;-87
2021/07/29 07:54:45;;;;;;;;;;;;;;;23.27;41.68;101009.06;4987036;28;19917;-88
2021/07/29 07:57:11;;;;;;;;;;;;;;;23.26;41.09;101017.50;4981164;28;19972;-88
2021/07/29 07:59:36;;;;;;;;;;;;;;;23.04;41.84;101007.66;4983499;28;20384;-90
2021/07/29 08:02:02;;;;;;;;;;;;;;;23.61;41.40;101008.47;4980756;28;19997;-87
2021/07/29 08:04:28;;;;;;;;;;;;;;;23.74;40.38;101015.50;4980796;28;19925;-87
2021/07/29 08:06:53;;;;;;;;;;;;;;;23.37;40.02;101011.78;4994013;28;19918;-86
2021/07/29 08:09:18;;;;;;;;;;;;;;;24.00;40.41;101024.78;4998382;28;19918;-88
2021/07/29 08:11:43;;;;;;;;;;;;;;;24.33;40.30;101022.34;5000851;28;19948;-87
2021/07/29 08:14:09;;;;;;;;;;;;;;;22.97;42.04;101024.81;4993993;28;20017;-88
2021/07/29 08:16:35;;;;;;;;;;;;;;;23.82;40.97;101029.38;4982142;28;19930;-88
2021/07/29 08:19:00;;;;;;;;;;;;;;;24.32;40.31;101025.28;4979404;28;19918;-87
2021/07/29 08:21:25;;;;;;;;;;;;;;;23.62;39.41;101035.03;4979400;28;20344;-87
2021/07/29 08:23:50;;;;;;;;;;;;;;;22.68;41.21;101024.00;4979171;28;20439;-85
2021/07/29 08:26:16;;;;;;;;;;;;;;;23.05;39.51;101031.47;4996431;28;19921;-86
2021/07/29 08:28:42;;;;;;;;;;;;;;;23.47;39.46;101026.38;4978888;28;19914;-86
2021/07/29 08:31:11;;;;;;;;;;;;;;;23.29;39.65;101039.25;4978825;28;19973;-87
2021/07/29 08:33:37;;;;;;;;;;;;;;;23.50;39.62;101036.25;4979436;28;19925;-86
2021/07/29 08:36:02;;;;;;;;;;;;;;;23.85;39.70;101041.06;4979306;28;20399;-84
2021/07/29 08:38:27;;;;;;;;;;;;;;;24.00;39.26;101037.75;4996651;28;19924;-86
2021/07/29 08:40:55;;;;;;;;;;;;;;;24.13;39.15;101029.09;4979799;28;19981;-86
2021/07/29 08:43:21;;;;;;;;;;;;;;;24.47;37.77;101040.25;4979346;28;20301;-85
2021/07/29 08:45:50;;;;;;;;;;;;;;;24.39;37.42;101038.28;4996634;28;19946;-86
2021/07/29 08:48:18;;;;;;;;;;;;;;;24.03;37.02;101038.28;4979413;28;20004;-88
2021/07/29 08:50:43;;;;;;;;;;;;;;;23.79;37.67;101041.63;4996674;28;20363;-86
2021/07/29 08:53:08;;;;;;;;;;;;;;;23.99;37.64;101056.22;4979682;28;19992;-85
2021/07/29 08:55:33;;;;;;;;;;;;;;;23.69;36.20;101041.69;4978261;28;19949;-86
2021/07/29 08:57:59;;;;;;;;;;;;;;;24.28;35.40;101041.31;4979646;28;20386;-87
2021/07/29 09:00:24;;;;;;;;;;;;;;;23.87;36.01;101044.53;4979746;28;19925;-88
2021/07/29 09:02:49;;;;;;;;;;;;;;;23.58;34.90;101052.94;4979425;28;19918;-88
2021/07/29 09:05:16;;;;;;;;;;;;;;;23.62;34.75;101061.78;4979061;28;20489;-88
2021/07/29 09:07:42;;;;;;;;;;;;;;;24.98;33.16;101048.81;4979308;28;19925;-84
2021/07/29 09:10:21;;;;;;;;;;;;;;;24.73;33.07;101062.50;4979365;28;19922;-87
2021/07/29 09:13:05;;;;;;;;;;;;;;;23.85;34.41;101045.69;4978632;28;19924;-87
2021/07/29 09:15:30;;;;;;;;;;;;;;;24.53;33.92;101052.59;4996009;28;19932;-87
2021/07/29 09:17:55;;;;;;;;;;;;;;;24.97;33.59;101047.09;4997479;28;19922;-86
2021/07/29 09:20:20;;;;;;;;;;;;;;;23.67;35.53;101056.66;5013174;28;20330;-86
2021/07/29 09:22:53;;;;;;;;;;;;;;;23.88;34.62;101051.78;5015074;28;20106;-87
2021/07/29 09:25:20;;;;;;;;;;;;;;;24.62;33.16;101059.97;5017453;28;19944;-87
2021/07/29 09:27:49;;;;;;;;;;;;;;;24.75;33.82;101054.03;5018044;28;19927;-89
2021/07/29 09:30:16;;;;;;;;;;;;;;;24.59;34.63;101060.28;5019560;28;19971;-87
2021/07/29 09:32:50;;;;;;;;;;;;;;;24.50;34.45;101053.78;5018747;28;19917;-88
2021/07/29 09:35:29;;;;;;;;;;;;;;;24.18;34.34;101059.88;5017498;28;20346;-89
2021/07/29 09:37:54;;;;;;;;;;;;;;;25.25;31.89;101060.78;5009589;28;19917;-85
2021/07/29 09:40:19;;;;;;;;;;;;;;;24.75;32.38;101062.34;5007222;28;20252;-85
2021/07/29 09:43:12;;;;;;;;;;;;;;;25.06;32.32;101064.63;5014864;28;19929;-89
2021/07/29 09:45:37;;;;;;;;;;;;;;;23.98;33.79;101084.88;4987669;28;19925;-85
2021/07/29 09:48:06;;;;;;;;;;;;;;;24.50;34.11;101067.59;5002676;28;19918;-86
2021/07/29 09:50:32;;;;;;;;;;;;;;;25.35;33.13;101066.22;5002810;28;19989;-87
2021/07/29 09:52:58;;;;;;;;;;;;;;;25.29;32.36;101063.06;5005339;28;20299;-82
2021/07/29 09:55:25;;;;;;;;;;;;;;;24.88;32.26;101056.34;5059443;23;20023;-86
2021/07/29 09:57:50;;;;;;;;;;;;;;;25.43;32.24;101080.13;5054732;28;19960;-86
2021/07/29 10:00:16;;;;;;;;;;;;;;;25.02;32.33;101061.31;5018179;28;20326;-84
2021/07/29 10:02:42;;;;;;;;;;;;;;;25.17;32.29;101069.00;5018903;28;19917;-86
2021/07/29 10:05:08;;;;;;;;;;;;;;;25.43;32.60;101083.75;5018050;28;19917;-88
2021/07/29 10:07:39;;;;;;;;;;;;;;;25.62;32.20;101065.13;5017788;28;20627;-82
2021/07/29 10:10:08;;;;;;;;;;;;;;;24.82;33.00;101073.59;5018362;28;20306;-90
2021/07/29 10:12:34;;;;;;;;;;;;;;;25.13;32.91;101074.88;5019186;28;19968;-87
2021/07/29 10:15:03;;;;;;;;;;;;;;;24.75;32.94;101068.72;5018994;28;19917;-90
2021/07/29 10:17:34;;;;;;;;;;;;;;;24.95;32.92;101077.69;5019864;28;20008;-92
2021/07/29 10:20:12;;;;;;;;;;;;;;;24.70;33.34;101071.13;5019576;28;19921;-88
2021/07/29 10:22:40;;;;;;;;;;;;;;;24.83;33.60;101075.34;5019070;28;20026;-89
2021/07/29 10:25:05;;;;;;;;;;;;;;;23.73;35.49;101069.84;5019428;28;19925;-87
2021/07/29 10:27:32;;;;;;;;;;;;;;;25.47;33.51;101070.44;5019193;28;20412;-90
2021/07/29 10:30:30;;;;;;;;;;;;;;;24.55;33.47;101064.38;5019769;28;20290;-91
2021/07/29 10:32:57;;;;;;;;;;;;;;;24.69;34.33;101071.28;4994622;28;19924;-88
2021/07/29 10:35:25;;;;;;;;;;;;;;;24.85;33.36;101070.53;5021234;28;19917;-87
2021/07/29 10:37:53;;;;;;;;;;;;;;;25.03;32.89;101062.19;5025781;28;20003;-89
2021/07/29 10:40:30;;;;;;;;;;;;;;;25.51;32.24;101082.91;5028491;28;19959;-88
2021/07/29 10:43:14;;;;;;;;;;;;;;;25.37;32.68;101069.69;5032609;28;19939;-87
2021/07/29 10:45:49;;;;;;;;;;;;;;;26.34;30.98;101081.31;5048048;28;19913;-87
2021/07/29 10:48:33;;;;;;;;;;;;;;;25.45;32.13;101078.94;5047197;28;19925;-85
2021/07/29 10:51:11;;;;;;;;;;;;;;;26.36;31.24;101093.13;5040839;28;19917;-81
2021/07/29 10:53:43;;;;;;;;;;;;;;;25.21;32.40;101081.50;5049881;28;19940;-85
2021/07/29 10:56:09;;;;;;;;;;;;;;;26.51;30.92;101096.97;5067680;28;19920;-86
2021/07/29 10:59:00;;;;;;;;;;;;;;;25.25;32.03;101082.91;5050147;28;19986;-82
2021/07/29 11:01:44;;;;;;;;;;;;;;;25.36;30.76;101090.97;5061284;28;19963;-84
2021/07/29 11:04:10;;;;;;;;;;;;;;;25.79;30.46;101089.13;5054136;28;19917;-85
2021/07/29 11:06:36;;;;;;;;;;;;;;;25.80;31.36;101079.78;5025113;28;20432;-86
2021/07/29 11:09:09;;;;;;;;;;;;;;;25.10;32.17;101086.28;5021777;28;20016;-88
2021/07/29 11:11:37;;;;;;;;;;;;;;;25.73;31.46;101106.41;5023839;28;20370;-85
2021/07/29 11:14:03;;;;;;;;;;;;;;;24.32;33.27;101098.03;5045916;28;19964;-86
2021/07/29 11:16:29;;;;;;;;;;;;;;;26.03;31.75;101078.28;5064730;28;19928;-86
2021/07/29 11:18:59;;;;;;;;;;;;;;;25.92;32.27;101090.53;5061504;28;19921;-87
2021/07/29 11:21:24;;;;;;;;;;;;;;;25.37;32.95;101098.25;5057879;28;19917;-85
2021/07/29 11:23:50;;;;;;;;;;;;;;;26.56;31.44;101085.34;5079273;28;19928;-87
2021/07/29 11:26:15;;;;;;;;;;;;;;;25.88;32.25;101101.09;5040266;28;19932;-87
2021/07/29 11:28:41;;;;;;;;;;;;;;;26.78;31.58;101086.56;5047916;28;19980;-87
2021/07/29 11:31:06;;;;;;;;;;;;;;;26.26;32.56;101103.50;5063467;28;19925;-88
2021/07/29 11:33:31;;;;;;;;;;;;;;;26.72;30.97;101084.50;5039149;28;19917;-90
2021/07/29 11:36:08;;;;;;;;;;;;;;;26.55;30.45;101104.94;5024536;28;20008;-89
2021/07/29 11:38:33;;;;;;;;;;;;;;;26.07;31.41;101096.34;5026175;28;19924;-89
2021/07/29 11:41:00;;;;;;;;;;;;;;;26.30;31.56;101105.78;5029936;28;20310;-87
2021/07/29 11:43:35;;;;;;;;;;;;;;;26.06;32.89;101116.78;5034291;28;19917;-84
2021/07/29 11:46:10;;;;;;;;;;;;;;;25.73;33.68;101124.94;5049709;28;19916;-86
2021/07/29 11:48:36;;;;;;;;;;;;;;;24.69;35.76;101110.88;5058117;28;19976;-85
2021/07/29 11:51:01;;;;;;;;;;;;;;;25.98;34.13;101117.59;5044619;28;19924;-87
2021/07/29 11:53:41;;;;;;;;;;;;;;;26.65;33.08;101100.09;5030761;28;19924;-87
2021/07/29 11:56:08;;;;;;;;;;;;;;;26.08;33.74;101107.25;5041735;28;19925;-91
2021/07/29 11:58:34;;;;;;;;;;;;;;;26.82;33.56;101112.97;5042038;28;20002;-87
2021/07/29 12:01:07;;;;;;;;;;;;;;;25.89;34.55;101124.13;5020715;28;19969;-87
2021/07/29 12:03:35;;;;;;;;;;;;;;;25.92;34.45;101115.50;5026654;28;19933;-87
2021/07/29 12:06:02;;;;;;;;;;;;;;;25.70;35.06;101128.06;5037111;28;19917;-85
2021/07/29 12:08:28;;;;;;;;;;;;;;;26.11;34.69;101120.78;5019932;28;19917;-84
2021/07/29 12:10:58;;;;;;;;;;;;;;;25.80;34.93;101114.91;5036575;28;19917;-87
2021/07/29 12:13:24;;;;;;;;;;;;;;;25.89;35.54;101118.59;5037116;28;19917;-88
2021/07/29 12:15:53;;;;;;;;;;;;;;;26.11;35.02;101115.25;5034875;28;19933;-85
2021/07/29 12:18:21;;;;;;;;;;;;;;;26.96;34.19;101105.84;5018161;28;19924;-86
2021/07/29 12:20:48;;;;;;;;;;;;;;;27.22;32.97;101108.44;5034496;28;19924;-85
2021/07/29 12:23:14;;;;;;;;;;;;;;;25.69;35.69;101120.75;5035094;28;19917;-86
2021/07/29 12:25:40;;;;;;;;;;;;;;;26.68;34.30;101116.44;5031779;28;20365;-87
2021/07/29 12:28:05;;;;;;;;;;;;;;;26.53;33.88;101117.06;5035711;28;19921;-84
2021/07/29 12:30:45;;;;;;;;;;;;;;;26.03;34.75;101120.78;5034537;28;19917;-87
2021/07/29 12:33:14;;;;;;;;;;;;;;;26.32;34.11;101113.91;5037819;28;20401;-91